sensor_id;sensor_type;location;lat;lon;timestamp;P1;durP1;ratioP1;P2;durP2;ratioP2
15039;SDS011;7617;47.366;8.558;2024-02-28T00:00:15;25.77;;;19.23;;
15039;SDS011;7617;47.366;8.558;2024-02-28T00:02:43;24.60;;;17.77;;
15039;SDS011;7617;47.366;8.558;2024-02-28T00:05:12;26.58;;;19.42;;
15039;SDS011;7617;47.366;8.558;2024-02-28T00:07:41;23.67;;;17.65;;
15039;SDS011;7617;47.366;8.558;2024-02-28T00:10:11;29.53;;;18.70;;
15039;SDS011;7617;47.366;8.558;2024-02-28T00:12:39;27.80;;;18.75;;
15039;SDS011;7617;47.366;8.558;2024-02-28T00:15:08;25.60;;;19.07;;
15039;SDS011;7617;47.366;8.558;2024-02-28T00:17:44;24.37;;;18.50;;
15039;SDS011;7617;47.366;8.558;2024-02-28T00:20:13;25.07;;;18.03;;
15039;SDS011;7617;47.366;8.558;2024-02-28T00:22:41;25.90;;;18.63;;
15039;SDS011;7617;47.366;8.558;2024-02-28T00:25:14;24.67;;;17.97;;
15039;SDS011;7617;47.366;8.558;2024-02-28T00:27:42;25.53;;;19.30;;
15039;SDS011;7617;47.366;8.558;2024-02-28T00:30:11;26.73;;;18.93;;
15039;SDS011;7617;47.366;8.558;2024-02-28T00:32:41;24.92;;;19.35;;
15039;SDS011;7617;47.366;8.558;2024-02-28T00:35:10;33.47;;;17.73;;
15039;SDS011;7617;47.366;8.558;2024-02-28T00:37:38;25.67;;;18.33;;
15039;SDS011;7617;47.366;8.558;2024-02-28T00:40:08;24.73;;;19.10;;
15039;SDS011;7617;47.366;8.558;2024-02-28T00:42:37;24.63;;;18.97;;
15039;SDS011;7617;47.366;8.558;2024-02-28T00:45:07;26.83;;;19.67;;
15039;SDS011;7617;47.366;8.558;2024-02-28T00:47:37;24.93;;;18.90;;
15039;SDS011;7617;47.366;8.558;2024-02-28T00:50:08;24.53;;;18.63;;
15039;SDS011;7617;47.366;8.558;2024-02-28T00:52:37;26.77;;;19.30;;
15039;SDS011;7617;47.366;8.558;2024-02-28T00:55:06;26.42;;;18.88;;
15039;SDS011;7617;47.366;8.558;2024-02-28T00:57:34;25.20;;;19.38;;
15039;SDS011;7617;47.366;8.558;2024-02-28T01:00:03;30.42;;;19.45;;
15039;SDS011;7617;47.366;8.558;2024-02-28T01:02:33;25.23;;;18.42;;
15039;SDS011;7617;47.366;8.558;2024-02-28T01:05:00;25.70;;;19.23;;
15039;SDS011;7617;47.366;8.558;2024-02-28T01:07:30;24.40;;;18.27;;
15039;SDS011;7617;47.366;8.558;2024-02-28T01:09:59;27.43;;;19.83;;
15039;SDS011;7617;47.366;8.558;2024-02-28T01:12:27;29.30;;;19.75;;
15039;SDS011;7617;47.366;8.558;2024-02-28T01:14:56;25.73;;;19.37;;
15039;SDS011;7617;47.366;8.558;2024-02-28T01:17:23;25.90;;;18.83;;
15039;SDS011;7617;47.366;8.558;2024-02-28T01:19:54;26.47;;;19.57;;
15039;SDS011;7617;47.366;8.558;2024-02-28T01:22:22;24.83;;;18.97;;
15039;SDS011;7617;47.366;8.558;2024-02-28T01:24:53;26.80;;;19.83;;
15039;SDS011;7617;47.366;8.558;2024-02-28T01:27:21;24.93;;;18.97;;
15039;SDS011;7617;47.366;8.558;2024-02-28T01:29:49;26.17;;;19.58;;
15039;SDS011;7617;47.366;8.558;2024-02-28T01:32:20;27.00;;;19.80;;
15039;SDS011;7617;47.366;8.558;2024-02-28T01:34:48;27.25;;;18.85;;
15039;SDS011;7617;47.366;8.558;2024-02-28T01:37:17;26.00;;;18.80;;
15039;SDS011;7617;47.366;8.558;2024-02-28T01:39:45;26.30;;;19.20;;
15039;SDS011;7617;47.366;8.558;2024-02-28T01:42:14;24.00;;;17.85;;
15039;SDS011;7617;47.366;8.558;2024-02-28T01:44:43;26.08;;;19.27;;
15039;SDS011;7617;47.366;8.558;2024-02-28T01:47:15;26.23;;;18.67;;
15039;SDS011;7617;47.366;8.558;2024-02-28T01:49:45;27.90;;;18.70;;
15039;SDS011;7617;47.366;8.558;2024-02-28T01:52:15;27.40;;;18.23;;
15039;SDS011;7617;47.366;8.558;2024-02-28T01:54:45;26.53;;;18.77;;
15039;SDS011;7617;47.366;8.558;2024-02-28T01:57:15;26.27;;;18.47;;
15039;SDS011;7617;47.366;8.558;2024-02-28T01:59:44;25.83;;;18.57;;
15039;SDS011;7617;47.366;8.558;2024-02-28T02:02:13;27.67;;;18.83;;
15039;SDS011;7617;47.366;8.558;2024-02-28T02:04:41;24.05;;;17.63;;
15039;SDS011;7617;47.366;8.558;2024-02-28T02:07:09;25.70;;;19.20;;
15039;SDS011;7617;47.366;8.558;2024-02-28T02:09:38;23.37;;;17.60;;
15039;SDS011;7617;47.366;8.558;2024-02-28T02:12:07;24.70;;;18.47;;
15039;SDS011;7617;47.366;8.558;2024-02-28T02:14:36;25.35;;;17.92;;
15039;SDS011;7617;47.366;8.558;2024-02-28T02:17:05;24.65;;;18.27;;
15039;SDS011;7617;47.366;8.558;2024-02-28T02:19:33;26.10;;;18.20;;
15039;SDS011;7617;47.366;8.558;2024-02-28T02:22:01;25.37;;;18.00;;
15039;SDS011;7617;47.366;8.558;2024-02-28T02:24:34;23.15;;;17.60;;
15039;SDS011;7617;47.366;8.558;2024-02-28T02:27:02;24.42;;;17.90;;
15039;SDS011;7617;47.366;8.558;2024-02-28T02:29:32;26.52;;;17.13;;
15039;SDS011;7617;47.366;8.558;2024-02-28T02:32:01;25.83;;;18.60;;
15039;SDS011;7617;47.366;8.558;2024-02-28T02:34:30;25.53;;;17.87;;
15039;SDS011;7617;47.366;8.558;2024-02-28T02:36:58;27.92;;;17.98;;
15039;SDS011;7617;47.366;8.558;2024-02-28T02:39:27;23.60;;;17.47;;
15039;SDS011;7617;47.366;8.558;2024-02-28T02:41:56;25.13;;;17.53;;
15039;SDS011;7617;47.366;8.558;2024-02-28T02:44:24;24.73;;;18.60;;
15039;SDS011;7617;47.366;8.558;2024-02-28T02:46:52;24.23;;;18.00;;
15039;SDS011;7617;47.366;8.558;2024-02-28T02:49:20;25.23;;;18.83;;
15039;SDS011;7617;47.366;8.558;2024-02-28T02:51:49;24.97;;;18.60;;
15039;SDS011;7617;47.366;8.558;2024-02-28T02:54:17;25.13;;;19.20;;
15039;SDS011;7617;47.366;8.558;2024-02-28T02:56:46;23.97;;;17.83;;
15039;SDS011;7617;47.366;8.558;2024-02-28T02:59:16;23.73;;;17.85;;
15039;SDS011;7617;47.366;8.558;2024-02-28T03:01:47;25.17;;;18.80;;
15039;SDS011;7617;47.366;8.558;2024-02-28T03:04:17;24.13;;;19.13;;
15039;SDS011;7617;47.366;8.558;2024-02-28T03:06:45;24.38;;;18.35;;
15039;SDS011;7617;47.366;8.558;2024-02-28T03:09:14;24.40;;;18.43;;
15039;SDS011;7617;47.366;8.558;2024-02-28T03:11:41;22.45;;;18.30;;
15039;SDS011;7617;47.366;8.558;2024-02-28T03:14:09;22.30;;;17.80;;
15039;SDS011;7617;47.366;8.558;2024-02-28T03:16:42;24.40;;;18.20;;
15039;SDS011;7617;47.366;8.558;2024-02-28T03:19:11;24.50;;;18.85;;
15039;SDS011;7617;47.366;8.558;2024-02-28T03:21:39;25.52;;;18.85;;
15039;SDS011;7617;47.366;8.558;2024-02-28T03:24:07;23.27;;;18.40;;
15039;SDS011;7617;47.366;8.558;2024-02-28T03:26:36;24.13;;;18.67;;
15039;SDS011;7617;47.366;8.558;2024-02-28T03:29:07;23.50;;;17.67;;
15039;SDS011;7617;47.366;8.558;2024-02-28T03:31:35;23.30;;;18.30;;
15039;SDS011;7617;47.366;8.558;2024-02-28T03:34:05;21.92;;;18.10;;
15039;SDS011;7617;47.366;8.558;2024-02-28T03:36:34;22.65;;;18.38;;
15039;SDS011;7617;47.366;8.558;2024-02-28T03:39:03;22.65;;;18.00;;
15039;SDS011;7617;47.366;8.558;2024-02-28T03:41:32;21.45;;;16.77;;
15039;SDS011;7617;47.366;8.558;2024-02-28T03:44:00;20.85;;;16.85;;
15039;SDS011;7617;47.366;8.558;2024-02-28T03:46:28;22.02;;;17.02;;
15039;SDS011;7617;47.366;8.558;2024-02-28T03:48:56;20.40;;;16.70;;
15039;SDS011;7617;47.366;8.558;2024-02-28T03:51:26;22.65;;;17.85;;
15039;SDS011;7617;47.366;8.558;2024-02-28T03:53:55;23.38;;;15.85;;
15039;SDS011;7617;47.366;8.558;2024-02-28T03:56:23;21.77;;;16.73;;
15039;SDS011;7617;47.366;8.558;2024-02-28T03:58:53;20.90;;;15.25;;
15039;SDS011;7617;47.366;8.558;2024-02-28T04:01:21;23.23;;;17.00;;
15039;SDS011;7617;47.366;8.558;2024-02-28T04:03:49;21.52;;;16.17;;
15039;SDS011;7617;47.366;8.558;2024-02-28T04:06:18;19.85;;;15.98;;
15039;SDS011;7617;47.366;8.558;2024-02-28T04:08:48;20.92;;;16.02;;
15039;SDS011;7617;47.366;8.558;2024-02-28T04:11:16;20.70;;;15.80;;
15039;SDS011;7617;47.366;8.558;2024-02-28T04:13:45;20.38;;;14.98;;
15039;SDS011;7617;47.366;8.558;2024-02-28T04:16:14;21.10;;;15.57;;
15039;SDS011;7617;47.366;8.558;2024-02-28T04:18:42;19.70;;;15.00;;
15039;SDS011;7617;47.366;8.558;2024-02-28T04:21:10;21.65;;;16.27;;
15039;SDS011;7617;47.366;8.558;2024-02-28T04:23:38;21.70;;;14.63;;
15039;SDS011;7617;47.366;8.558;2024-02-28T04:26:09;21.20;;;16.30;;
15039;SDS011;7617;47.366;8.558;2024-02-28T04:28:38;21.52;;;16.27;;
15039;SDS011;7617;47.366;8.558;2024-02-28T04:31:06;21.52;;;16.27;;
15039;SDS011;7617;47.366;8.558;2024-02-28T04:33:36;20.30;;;15.63;;
15039;SDS011;7617;47.366;8.558;2024-02-28T04:36:05;20.73;;;15.82;;
15039;SDS011;7617;47.366;8.558;2024-02-28T04:38:33;19.83;;;15.07;;
15039;SDS011;7617;47.366;8.558;2024-02-28T04:41:01;18.58;;;15.13;;
15039;SDS011;7617;47.366;8.558;2024-02-28T04:43:31;23.98;;;15.95;;
15039;SDS011;7617;47.366;8.558;2024-02-28T04:46:00;20.67;;;15.38;;
15039;SDS011;7617;47.366;8.558;2024-02-28T04:48:30;19.33;;;16.42;;
15039;SDS011;7617;47.366;8.558;2024-02-28T04:50:59;19.10;;;14.93;;
15039;SDS011;7617;47.366;8.558;2024-02-28T04:53:28;19.42;;;15.57;;
15039;SDS011;7617;47.366;8.558;2024-02-28T04:55:57;19.45;;;15.90;;
15039;SDS011;7617;47.366;8.558;2024-02-28T04:58:25;19.27;;;15.38;;
15039;SDS011;7617;47.366;8.558;2024-02-28T05:00:54;19.70;;;15.83;;
15039;SDS011;7617;47.366;8.558;2024-02-28T05:03:23;21.35;;;15.27;;
15039;SDS011;7617;47.366;8.558;2024-02-28T05:05:52;20.55;;;14.75;;
15039;SDS011;7617;47.366;8.558;2024-02-28T05:08:20;21.80;;;16.17;;
15039;SDS011;7617;47.366;8.558;2024-02-28T05:10:49;19.83;;;15.87;;
15039;SDS011;7617;47.366;8.558;2024-02-28T05:13:18;20.77;;;15.25;;
15039;SDS011;7617;47.366;8.558;2024-02-28T05:15:46;21.40;;;15.90;;
15039;SDS011;7617;47.366;8.558;2024-02-28T05:18:18;21.57;;;15.57;;
15039;SDS011;7617;47.366;8.558;2024-02-28T05:20:47;18.98;;;15.35;;
15039;SDS011;7617;47.366;8.558;2024-02-28T05:23:15;20.83;;;15.13;;
15039;SDS011;7617;47.366;8.558;2024-02-28T05:25:46;18.48;;;14.75;;
15039;SDS011;7617;47.366;8.558;2024-02-28T05:28:14;23.38;;;14.63;;
15039;SDS011;7617;47.366;8.558;2024-02-28T05:30:43;21.02;;;14.85;;
15039;SDS011;7617;47.366;8.558;2024-02-28T05:33:15;21.27;;;15.02;;
15039;SDS011;7617;47.366;8.558;2024-02-28T05:35:46;17.90;;;13.65;;
15039;SDS011;7617;47.366;8.558;2024-02-28T05:38:14;18.77;;;13.40;;
15039;SDS011;7617;47.366;8.558;2024-02-28T05:40:42;18.97;;;13.50;;
15039;SDS011;7617;47.366;8.558;2024-02-28T05:43:11;16.98;;;12.85;;
15039;SDS011;7617;47.366;8.558;2024-02-28T05:45:39;17.87;;;12.60;;
15039;SDS011;7617;47.366;8.558;2024-02-28T05:48:07;18.17;;;13.50;;
15039;SDS011;7617;47.366;8.558;2024-02-28T05:50:36;17.13;;;12.90;;
15039;SDS011;7617;47.366;8.558;2024-02-28T05:53:06;18.33;;;12.80;;
15039;SDS011;7617;47.366;8.558;2024-02-28T05:55:35;15.83;;;12.47;;
15039;SDS011;7617;47.366;8.558;2024-02-28T05:58:03;16.03;;;11.83;;
15039;SDS011;7617;47.366;8.558;2024-02-28T06:00:33;18.83;;;12.90;;
15039;SDS011;7617;47.366;8.558;2024-02-28T06:03:02;18.07;;;12.60;;
15039;SDS011;7617;47.366;8.558;2024-02-28T06:05:32;16.27;;;11.97;;
15039;SDS011;7617;47.366;8.558;2024-02-28T06:08:00;17.37;;;11.80;;
15039;SDS011;7617;47.366;8.558;2024-02-28T06:10:29;17.00;;;11.67;;
15039;SDS011;7617;47.366;8.558;2024-02-28T06:12:58;16.90;;;11.83;;
15039;SDS011;7617;47.366;8.558;2024-02-28T06:15:26;14.23;;;11.02;;
15039;SDS011;7617;47.366;8.558;2024-02-28T06:17:56;15.40;;;11.82;;
15039;SDS011;7617;47.366;8.558;2024-02-28T06:20:24;16.67;;;12.35;;
15039;SDS011;7617;47.366;8.558;2024-02-28T06:22:52;16.90;;;11.68;;
15039;SDS011;7617;47.366;8.558;2024-02-28T06:25:21;15.80;;;11.82;;
15039;SDS011;7617;47.366;8.558;2024-02-28T06:27:51;17.02;;;12.07;;
15039;SDS011;7617;47.366;8.558;2024-02-28T06:30:20;16.40;;;11.57;;
15039;SDS011;7617;47.366;8.558;2024-02-28T06:32:48;16.27;;;11.87;;
15039;SDS011;7617;47.366;8.558;2024-02-28T06:35:17;14.93;;;10.83;;
15039;SDS011;7617;47.366;8.558;2024-02-28T06:37:45;14.93;;;10.97;;
15039;SDS011;7617;47.366;8.558;2024-02-28T06:40:16;13.80;;;10.83;;
15039;SDS011;7617;47.366;8.558;2024-02-28T06:42:44;15.80;;;11.60;;
15039;SDS011;7617;47.366;8.558;2024-02-28T06:45:14;15.10;;;10.73;;
15039;SDS011;7617;47.366;8.558;2024-02-28T06:47:43;16.27;;;10.87;;
15039;SDS011;7617;47.366;8.558;2024-02-28T06:50:12;14.17;;;11.00;;
15039;SDS011;7617;47.366;8.558;2024-02-28T06:52:40;16.10;;;11.00;;
15039;SDS011;7617;47.366;8.558;2024-02-28T06:55:09;16.07;;;10.90;;
15039;SDS011;7617;47.366;8.558;2024-02-28T06:57:39;15.80;;;10.63;;
15039;SDS011;7617;47.366;8.558;2024-02-28T07:00:09;14.87;;;11.20;;
15039;SDS011;7617;47.366;8.558;2024-02-28T07:02:40;14.63;;;10.40;;
15039;SDS011;7617;47.366;8.558;2024-02-28T07:05:08;13.33;;;10.30;;
15039;SDS011;7617;47.366;8.558;2024-02-28T07:07:36;15.50;;;10.97;;
15039;SDS011;7617;47.366;8.558;2024-02-28T07:10:04;13.97;;;10.43;;
15039;SDS011;7617;47.366;8.558;2024-02-28T07:12:33;15.57;;;10.27;;
15039;SDS011;7617;47.366;8.558;2024-02-28T07:15:02;15.70;;;11.17;;
15039;SDS011;7617;47.366;8.558;2024-02-28T07:17:31;16.23;;;10.83;;
15039;SDS011;7617;47.366;8.558;2024-02-28T07:20:00;15.50;;;10.23;;
15039;SDS011;7617;47.366;8.558;2024-02-28T07:22:28;14.80;;;10.10;;
15039;SDS011;7617;47.366;8.558;2024-02-28T07:24:56;14.20;;;10.67;;
15039;SDS011;7617;47.366;8.558;2024-02-28T07:27:24;13.50;;;9.63;;
15039;SDS011;7617;47.366;8.558;2024-02-28T07:29:52;14.83;;;10.07;;
15039;SDS011;7617;47.366;8.558;2024-02-28T07:32:20;15.10;;;10.37;;
15039;SDS011;7617;47.366;8.558;2024-02-28T07:34:49;14.97;;;10.30;;
15039;SDS011;7617;47.366;8.558;2024-02-28T07:37:18;14.23;;;10.17;;
15039;SDS011;7617;47.366;8.558;2024-02-28T07:39:46;15.97;;;10.10;;
15039;SDS011;7617;47.366;8.558;2024-02-28T07:42:14;13.83;;;9.93;;
15039;SDS011;7617;47.366;8.558;2024-02-28T07:44:44;12.13;;;8.13;;
15039;SDS011;7617;47.366;8.558;2024-02-28T07:47:11;14.53;;;10.70;;
15039;SDS011;7617;47.366;8.558;2024-02-28T07:49:40;16.33;;;10.10;;
15039;SDS011;7617;47.366;8.558;2024-02-28T07:52:08;14.47;;;10.07;;
15039;SDS011;7617;47.366;8.558;2024-02-28T07:54:38;14.73;;;10.40;;
15039;SDS011;7617;47.366;8.558;2024-02-28T07:57:09;12.90;;;8.87;;
15039;SDS011;7617;47.366;8.558;2024-02-28T07:59:41;14.30;;;9.97;;
15039;SDS011;7617;47.366;8.558;2024-02-28T08:02:10;13.23;;;9.47;;
15039;SDS011;7617;47.366;8.558;2024-02-28T08:04:39;14.80;;;10.37;;
15039;SDS011;7617;47.366;8.558;2024-02-28T08:07:07;14.60;;;9.83;;
15039;SDS011;7617;47.366;8.558;2024-02-28T08:09:35;15.60;;;9.80;;
15039;SDS011;7617;47.366;8.558;2024-02-28T08:12:05;14.00;;;9.63;;
15039;SDS011;7617;47.366;8.558;2024-02-28T08:14:33;12.97;;;10.27;;
15039;SDS011;7617;47.366;8.558;2024-02-28T08:17:01;13.57;;;9.07;;
15039;SDS011;7617;47.366;8.558;2024-02-28T08:19:29;13.43;;;9.10;;
15039;SDS011;7617;47.366;8.558;2024-02-28T08:21:57;14.60;;;9.63;;
15039;SDS011;7617;47.366;8.558;2024-02-28T08:24:25;13.20;;;10.03;;
15039;SDS011;7617;47.366;8.558;2024-02-28T08:26:54;13.67;;;9.90;;
15039;SDS011;7617;47.366;8.558;2024-02-28T08:29:24;13.27;;;9.40;;
15039;SDS011;7617;47.366;8.558;2024-02-28T08:31:53;13.47;;;8.83;;
15039;SDS011;7617;47.366;8.558;2024-02-28T08:34:21;14.23;;;9.70;;
15039;SDS011;7617;47.366;8.558;2024-02-28T08:36:49;14.07;;;9.63;;
15039;SDS011;7617;47.366;8.558;2024-02-28T08:39:18;13.47;;;9.67;;
15039;SDS011;7617;47.366;8.558;2024-02-28T08:41:46;14.70;;;10.07;;
15039;SDS011;7617;47.366;8.558;2024-02-28T08:44:15;14.17;;;9.80;;
15039;SDS011;7617;47.366;8.558;2024-02-28T08:46:44;14.57;;;9.30;;
15039;SDS011;7617;47.366;8.558;2024-02-28T08:49:14;13.37;;;9.97;;
15039;SDS011;7617;47.366;8.558;2024-02-28T08:51:44;13.80;;;9.97;;
15039;SDS011;7617;47.366;8.558;2024-02-28T08:54:15;16.80;;;10.20;;
15039;SDS011;7617;47.366;8.558;2024-02-28T08:56:43;13.53;;;8.87;;
15039;SDS011;7617;47.366;8.558;2024-02-28T08:59:22;13.17;;;9.77;;
15039;SDS011;7617;47.366;8.558;2024-02-28T09:01:53;14.60;;;10.30;;
15039;SDS011;7617;47.366;8.558;2024-02-28T09:04:21;14.20;;;10.07;;
15039;SDS011;7617;47.366;8.558;2024-02-28T09:06:49;13.57;;;10.23;;
15039;SDS011;7617;47.366;8.558;2024-02-28T09:09:19;15.33;;;10.63;;
15039;SDS011;7617;47.366;8.558;2024-02-28T09:11:47;15.03;;;10.00;;
15039;SDS011;7617;47.366;8.558;2024-02-28T09:14:16;15.50;;;10.43;;
15039;SDS011;7617;47.366;8.558;2024-02-28T09:16:44;13.93;;;9.97;;
15039;SDS011;7617;47.366;8.558;2024-02-28T09:19:15;16.00;;;11.32;;
15039;SDS011;7617;47.366;8.558;2024-02-28T09:21:44;14.10;;;10.68;;
15039;SDS011;7617;47.366;8.558;2024-02-28T09:24:14;14.27;;;11.50;;
15039;SDS011;7617;47.366;8.558;2024-02-28T09:26:42;14.38;;;10.90;;
15039;SDS011;7617;47.366;8.558;2024-02-28T09:29:11;15.63;;;11.90;;
15039;SDS011;7617;47.366;8.558;2024-02-28T09:31:39;14.57;;;11.55;;
15039;SDS011;7617;47.366;8.558;2024-02-28T09:34:07;14.90;;;11.18;;
15039;SDS011;7617;47.366;8.558;2024-02-28T09:36:41;14.32;;;11.40;;
15039;SDS011;7617;47.366;8.558;2024-02-28T09:39:16;17.63;;;11.68;;
15039;SDS011;7617;47.366;8.558;2024-02-28T09:41:46;15.45;;;11.32;;
15039;SDS011;7617;47.366;8.558;2024-02-28T09:44:16;16.85;;;11.50;;
15039;SDS011;7617;47.366;8.558;2024-02-28T09:46:44;17.13;;;12.15;;
15039;SDS011;7617;47.366;8.558;2024-02-28T09:49:15;15.57;;;11.77;;
15039;SDS011;7617;47.366;8.558;2024-02-28T09:51:45;16.00;;;11.55;;
15039;SDS011;7617;47.366;8.558;2024-02-28T09:54:16;16.20;;;11.75;;
15039;SDS011;7617;47.366;8.558;2024-02-28T09:56:47;15.02;;;11.85;;
15039;SDS011;7617;47.366;8.558;2024-02-28T09:59:15;14.85;;;11.45;;
15039;SDS011;7617;47.366;8.558;2024-02-28T10:01:48;15.43;;;12.35;;
15039;SDS011;7617;47.366;8.558;2024-02-28T10:04:23;15.52;;;12.30;;
15039;SDS011;7617;47.366;8.558;2024-02-28T10:06:53;15.48;;;12.48;;
15039;SDS011;7617;47.366;8.558;2024-02-28T10:09:21;16.05;;;12.80;;
15039;SDS011;7617;47.366;8.558;2024-02-28T10:11:50;17.00;;;13.27;;
15039;SDS011;7617;47.366;8.558;2024-02-28T10:14:18;18.75;;;12.82;;
15039;SDS011;7617;47.366;8.558;2024-02-28T10:16:47;16.77;;;13.07;;
15039;SDS011;7617;47.366;8.558;2024-02-28T10:19:16;17.30;;;12.80;;
15039;SDS011;7617;47.366;8.558;2024-02-28T10:21:45;15.65;;;13.00;;
15039;SDS011;7617;47.366;8.558;2024-02-28T10:24:15;16.17;;;12.90;;
15039;SDS011;7617;47.366;8.558;2024-02-28T10:26:44;17.73;;;12.68;;
15039;SDS011;7617;47.366;8.558;2024-02-28T10:29:14;22.05;;;13.35;;
15039;SDS011;7617;47.366;8.558;2024-02-28T10:31:42;18.55;;;13.48;;
15039;SDS011;7617;47.366;8.558;2024-02-28T10:34:12;18.52;;;13.32;;
15039;SDS011;7617;47.366;8.558;2024-02-28T10:36:42;19.08;;;14.70;;
15039;SDS011;7617;47.366;8.558;2024-02-28T10:39:13;17.02;;;12.85;;
15039;SDS011;7617;47.366;8.558;2024-02-28T10:41:44;18.27;;;13.68;;
15039;SDS011;7617;47.366;8.558;2024-02-28T10:44:15;20.73;;;14.05;;
15039;SDS011;7617;47.366;8.558;2024-02-28T10:46:44;17.90;;;13.75;;
15039;SDS011;7617;47.366;8.558;2024-02-28T10:49:16;19.23;;;13.77;;
15039;SDS011;7617;47.366;8.558;2024-02-28T10:51:46;20.88;;;13.30;;
15039;SDS011;7617;47.366;8.558;2024-02-28T10:54:17;19.00;;;14.32;;
15039;SDS011;7617;47.366;8.558;2024-02-28T10:56:50;16.08;;;13.60;;
15039;SDS011;7617;47.366;8.558;2024-02-28T10:59:22;18.85;;;13.10;;
15039;SDS011;7617;47.366;8.558;2024-02-28T11:01:51;18.52;;;13.85;;
15039;SDS011;7617;47.366;8.558;2024-02-28T11:04:19;15.57;;;12.80;;
15039;SDS011;7617;47.366;8.558;2024-02-28T11:06:48;18.40;;;13.23;;
15039;SDS011;7617;47.366;8.558;2024-02-28T11:09:19;17.58;;;13.52;;
15039;SDS011;7617;47.366;8.558;2024-02-28T11:11:51;18.05;;;13.18;;
15039;SDS011;7617;47.366;8.558;2024-02-28T11:14:20;16.05;;;13.50;;
15039;SDS011;7617;47.366;8.558;2024-02-28T11:16:59;16.52;;;13.45;;
15039;SDS011;7617;47.366;8.558;2024-02-28T11:19:28;17.92;;;13.63;;
15039;SDS011;7617;47.366;8.558;2024-02-28T11:21:58;17.38;;;13.52;;
15039;SDS011;7617;47.366;8.558;2024-02-28T11:24:30;17.35;;;13.07;;
15039;SDS011;7617;47.366;8.558;2024-02-28T11:27:01;18.65;;;13.93;;
15039;SDS011;7617;47.366;8.558;2024-02-28T11:29:30;17.20;;;13.27;;
15039;SDS011;7617;47.366;8.558;2024-02-28T11:31:58;16.38;;;13.55;;
15039;SDS011;7617;47.366;8.558;2024-02-28T11:34:26;16.10;;;13.13;;
15039;SDS011;7617;47.366;8.558;2024-02-28T11:36:54;18.05;;;13.70;;
15039;SDS011;7617;47.366;8.558;2024-02-28T11:39:26;17.00;;;13.40;;
15039;SDS011;7617;47.366;8.558;2024-02-28T11:42:02;16.63;;;13.25;;
15039;SDS011;7617;47.366;8.558;2024-02-28T11:44:39;16.85;;;13.82;;
15039;SDS011;7617;47.366;8.558;2024-02-28T11:47:08;16.80;;;13.40;;
15039;SDS011;7617;47.366;8.558;2024-02-28T11:49:37;17.88;;;13.82;;
15039;SDS011;7617;47.366;8.558;2024-02-28T11:52:07;18.05;;;14.40;;
15039;SDS011;7617;47.366;8.558;2024-02-28T11:54:37;18.05;;;14.20;;
15039;SDS011;7617;47.366;8.558;2024-02-28T11:57:06;18.42;;;14.43;;
15039;SDS011;7617;47.366;8.558;2024-02-28T11:59:36;16.95;;;13.68;;
15039;SDS011;7617;47.366;8.558;2024-02-28T12:02:11;18.35;;;14.77;;
15039;SDS011;7617;47.366;8.558;2024-02-28T12:04:39;18.02;;;14.38;;
15039;SDS011;7617;47.366;8.558;2024-02-28T12:07:08;16.83;;;14.38;;
15039;SDS011;7617;47.366;8.558;2024-02-28T12:09:36;20.02;;;14.90;;
15039;SDS011;7617;47.366;8.558;2024-02-28T12:12:08;18.50;;;14.57;;
15039;SDS011;7617;47.366;8.558;2024-02-28T12:14:37;19.02;;;14.45;;
15039;SDS011;7617;47.366;8.558;2024-02-28T12:17:05;17.10;;;14.02;;
15039;SDS011;7617;47.366;8.558;2024-02-28T12:19:35;18.90;;;15.15;;
15039;SDS011;7617;47.366;8.558;2024-02-28T12:22:03;16.88;;;13.60;;
15039;SDS011;7617;47.366;8.558;2024-02-28T12:24:32;17.17;;;13.73;;
15039;SDS011;7617;47.366;8.558;2024-02-28T12:27:00;17.80;;;13.77;;
15039;SDS011;7617;47.366;8.558;2024-02-28T12:29:28;16.73;;;14.02;;
15039;SDS011;7617;47.366;8.558;2024-02-28T12:31:57;16.73;;;13.70;;
15039;SDS011;7617;47.366;8.558;2024-02-28T12:34:26;16.48;;;14.40;;
15039;SDS011;7617;47.366;8.558;2024-02-28T12:36:54;16.27;;;14.23;;
15039;SDS011;7617;47.366;8.558;2024-02-28T12:39:22;17.70;;;13.82;;
15039;SDS011;7617;47.366;8.558;2024-02-28T12:41:49;17.23;;;13.88;;
15039;SDS011;7617;47.366;8.558;2024-02-28T12:44:18;18.90;;;14.20;;
15039;SDS011;7617;47.366;8.558;2024-02-28T12:46:46;17.45;;;14.25;;
15039;SDS011;7617;47.366;8.558;2024-02-28T12:49:15;18.70;;;14.93;;
15039;SDS011;7617;47.366;8.558;2024-02-28T12:51:44;15.27;;;13.07;;
15039;SDS011;7617;47.366;8.558;2024-02-28T12:54:15;16.35;;;14.52;;
15039;SDS011;7617;47.366;8.558;2024-02-28T12:56:43;16.13;;;13.82;;
15039;SDS011;7617;47.366;8.558;2024-02-28T12:59:12;18.65;;;14.32;;
15039;SDS011;7617;47.366;8.558;2024-02-28T13:01:40;17.38;;;13.65;;
15039;SDS011;7617;47.366;8.558;2024-02-28T13:04:08;18.15;;;15.18;;
15039;SDS011;7617;47.366;8.558;2024-02-28T13:06:37;16.75;;;13.75;;
15039;SDS011;7617;47.366;8.558;2024-02-28T13:09:05;17.95;;;14.20;;
15039;SDS011;7617;47.366;8.558;2024-02-28T13:11:38;16.92;;;13.63;;
15039;SDS011;7617;47.366;8.558;2024-02-28T13:14:06;15.93;;;13.30;;
15039;SDS011;7617;47.366;8.558;2024-02-28T13:16:35;16.02;;;13.88;;
15039;SDS011;7617;47.366;8.558;2024-02-28T13:19:04;17.00;;;13.88;;
15039;SDS011;7617;47.366;8.558;2024-02-28T13:21:32;19.83;;;14.45;;
15039;SDS011;7617;47.366;8.558;2024-02-28T13:24:02;17.60;;;14.55;;
15039;SDS011;7617;47.366;8.558;2024-02-28T13:26:30;17.13;;;14.38;;
15039;SDS011;7617;47.366;8.558;2024-02-28T13:28:58;19.10;;;14.65;;
15039;SDS011;7617;47.366;8.558;2024-02-28T13:31:26;18.98;;;15.05;;
15039;SDS011;7617;47.366;8.558;2024-02-28T13:33:54;18.05;;;15.00;;
15039;SDS011;7617;47.366;8.558;2024-02-28T13:36:22;18.50;;;14.00;;
15039;SDS011;7617;47.366;8.558;2024-02-28T13:38:51;16.30;;;14.20;;
15039;SDS011;7617;47.366;8.558;2024-02-28T13:41:20;17.55;;;14.27;;
15039;SDS011;7617;47.366;8.558;2024-02-28T13:43:48;18.48;;;14.90;;
15039;SDS011;7617;47.366;8.558;2024-02-28T13:46:16;17.10;;;14.43;;
15039;SDS011;7617;47.366;8.558;2024-02-28T13:48:45;17.60;;;14.23;;
15039;SDS011;7617;47.366;8.558;2024-02-28T13:51:14;18.63;;;15.00;;
15039;SDS011;7617;47.366;8.558;2024-02-28T13:53:43;18.30;;;14.80;;
15039;SDS011;7617;47.366;8.558;2024-02-28T13:56:11;16.67;;;14.85;;
15039;SDS011;7617;47.366;8.558;2024-02-28T13:58:40;16.85;;;14.80;;
15039;SDS011;7617;47.366;8.558;2024-02-28T14:01:18;17.88;;;14.80;;
15039;SDS011;7617;47.366;8.558;2024-02-28T14:03:47;18.15;;;15.10;;
15039;SDS011;7617;47.366;8.558;2024-02-28T14:06:15;18.40;;;14.85;;
15039;SDS011;7617;47.366;8.558;2024-02-28T14:08:44;17.77;;;14.40;;
15039;SDS011;7617;47.366;8.558;2024-02-28T14:11:12;19.02;;;14.98;;
15039;SDS011;7617;47.366;8.558;2024-02-28T14:13:44;19.58;;;14.73;;
15039;SDS011;7617;47.366;8.558;2024-02-28T14:16:13;19.33;;;14.73;;
15039;SDS011;7617;47.366;8.558;2024-02-28T14:18:41;18.48;;;14.55;;
15039;SDS011;7617;47.366;8.558;2024-02-28T14:21:09;16.85;;;14.32;;
15039;SDS011;7617;47.366;8.558;2024-02-28T14:23:37;18.92;;;15.40;;
15039;SDS011;7617;47.366;8.558;2024-02-28T14:26:06;17.90;;;14.27;;
15039;SDS011;7617;47.366;8.558;2024-02-28T14:28:34;17.95;;;14.07;;
15039;SDS011;7617;47.366;8.558;2024-02-28T14:31:04;19.75;;;15.40;;
15039;SDS011;7617;47.366;8.558;2024-02-28T14:33:32;18.33;;;15.02;;
15039;SDS011;7617;47.366;8.558;2024-02-28T14:36:01;18.38;;;15.00;;
15039;SDS011;7617;47.366;8.558;2024-02-28T14:38:30;19.30;;;15.52;;
15039;SDS011;7617;47.366;8.558;2024-02-28T14:40:58;17.83;;;14.35;;
15039;SDS011;7617;47.366;8.558;2024-02-28T14:43:26;18.77;;;14.70;;
15039;SDS011;7617;47.366;8.558;2024-02-28T14:45:56;18.85;;;14.57;;